Sabina, Ohio
Current Conditions -  °F | °C
As of 6:54 AM on Thursday 23 Oct 2014 (Local Time) from KILN Reporting Station
Haze Haze  
Wind Chill: 36°   Ceiling: Unl
Heat Index: 36°   Visibility: 6mi
Dew Point: 34°   Wind: 3mph
Humidity: 93%   Direction: 350°N
Pressure: 30.24"   Gusts: NA
Location:  39.49°N, 83.64°W
Report Text: KILN 231054Z AUTO 35003KT 6SM BR CLR 02/01 A3024 RMK AO2 SLP256 T00220011
Loading
Personal Weather Stations






























Interactive Weather Map
Tropical Storm Tracking
New forecast layout! Learn more

10-Day Weather Forecast

Advertisements
Track Severe Weather on mobile